createdAt,value
2018-04-27T00:00:44.010Z,92.10
2018-04-27T00:03:12.052Z,92.40
2018-04-27T00:05:40.496Z,92.40
2018-04-27T00:08:08.018Z,92.80
2018-04-27T00:10:36.370Z,93.50
2018-04-27T00:13:03.873Z,93.50
2018-04-27T00:15:31.398Z,93.60
2018-04-27T00:17:58.891Z,93.70
2018-04-27T00:20:26.392Z,93.40
2018-04-27T00:22:54.128Z,92.90
2018-04-27T00:25:21.635Z,92.60
2018-04-27T00:27:49.113Z,92.60
2018-04-27T00:30:17.391Z,92.20
2018-04-27T00:32:45.681Z,91.90
2018-04-27T00:35:13.861Z,91.90
2018-04-27T00:37:41.356Z,92.10
2018-04-27T00:40:08.874Z,92.00
2018-04-27T00:42:36.669Z,92.10
2018-04-27T00:45:04.165Z,92.30
2018-04-27T00:47:31.750Z,92.40
2018-04-27T00:50:00.024Z,92.20
2018-04-27T00:52:27.559Z,92.20
2018-04-27T00:54:55.561Z,92.10
2018-04-27T00:57:23.054Z,92.10
2018-04-27T00:59:50.571Z,92.20
2018-04-27T01:02:18.282Z,92.40
2018-04-27T01:04:45.826Z,93.00
2018-04-27T01:07:13.312Z,93.00
2018-04-27T01:09:41.676Z,93.40
2018-04-27T01:12:09.174Z,93.60
2018-04-27T01:14:36.659Z,93.90
2018-04-27T01:17:04.145Z,94.60
2018-04-27T01:19:31.680Z,94.50
2018-04-27T01:21:59.288Z,94.80
2018-04-27T01:24:26.775Z,95.00
2018-04-27T01:26:55.047Z,95.40
2018-04-27T01:29:22.791Z,95.50
2018-04-27T01:31:50.343Z,95.40
2018-04-27T01:34:17.988Z,95.50
2018-04-27T01:36:45.633Z,95.60
2018-04-27T01:39:13.184Z,95.70
2018-04-27T01:41:40.669Z,95.80
2018-04-27T01:44:08.185Z,96.10
2018-04-27T01:46:35.736Z,96.00
2018-04-27T01:49:04.438Z,96.20
2018-04-27T01:51:32.692Z,96.30
2018-04-27T01:54:00.167Z,96.30
2018-04-27T01:56:29.019Z,96.50
2018-04-27T01:58:57.361Z,96.50
2018-04-27T02:01:24.858Z,96.60
2018-04-27T02:03:52.354Z,96.60
2018-04-27T02:06:20.641Z,96.60
2018-04-27T02:08:48.206Z,96.60
2018-04-27T02:11:15.708Z,96.60
2018-04-27T02:13:43.288Z,96.80
2018-04-27T02:16:10.835Z,96.80
2018-04-27T02:18:38.428Z,96.80
2018-04-27T02:21:06.697Z,97.00
2018-04-27T02:23:34.963Z,97.00
2018-04-27T02:26:02.505Z,97.00
2018-04-27T02:28:29.991Z,97.10
2018-04-27T02:30:57.624Z,97.10
2018-04-27T02:33:25.172Z,97.10
2018-04-27T02:35:52.709Z,97.10
2018-04-27T02:38:20.279Z,97.10
2018-04-27T02:40:47.785Z,97.10
2018-04-27T02:43:15.403Z,97.20
2018-04-27T02:45:43.253Z,97.10
2018-04-27T02:48:10.780Z,97.20
2018-04-27T02:50:38.611Z,97.20
2018-04-27T02:53:06.136Z,97.00
2018-04-27T02:55:33.647Z,97.10
2018-04-27T02:58:01.795Z,96.70
2018-04-27T03:00:29.303Z,96.80
2018-04-27T03:02:57.573Z,96.70
2018-04-27T03:05:25.184Z,96.60
2018-04-27T03:07:52.695Z,96.70
2018-04-27T03:10:20.969Z,96.70
2018-04-27T03:12:49.249Z,97.00
2018-04-27T03:15:16.994Z,96.70
2018-04-27T03:17:44.506Z,96.70
2018-04-27T03:20:12.077Z,96.80
2018-04-27T03:22:39.853Z,96.70
2018-04-27T03:25:07.371Z,96.70
2018-04-27T03:27:34.869Z,96.60
2018-04-27T03:30:02.367Z,96.70
2018-04-27T03:32:30.046Z,96.50
2018-04-27T03:34:57.658Z,96.70
2018-04-27T03:37:25.177Z,96.90
2018-04-27T03:39:52.674Z,96.40
2018-04-27T03:42:20.167Z,96.50
2018-04-27T03:44:47.761Z,96.40
2018-04-27T03:47:15.318Z,96.40
2018-04-27T03:49:42.823Z,96.40
2018-04-27T03:52:10.369Z,96.30
2018-04-27T03:54:37.863Z,96.00
2018-04-27T03:57:05.356Z,95.80
2018-04-27T03:59:44.659Z,95.60
2018-04-27T04:02:24.865Z,95.10
2018-04-27T04:05:04.267Z,95.10
2018-04-27T04:07:31.887Z,95.10
2018-04-27T04:09:59.679Z,94.80
2018-04-27T04:12:28.009Z,94.60
2018-04-27T04:14:55.577Z,94.10
2018-04-27T04:17:23.077Z,93.90
2018-04-27T04:19:50.703Z,93.70
2018-04-27T04:22:18.444Z,93.50
2018-04-27T04:24:45.987Z,93.00
2018-04-27T04:27:13.979Z,92.60
2018-04-27T04:29:41.485Z,91.60
2018-04-27T04:32:09.165Z,87.60
2018-04-27T04:34:36.825Z,81.90
2018-04-27T04:37:04.424Z,77.10
2018-04-27T04:39:32.039Z,71.30
2018-04-27T04:42:00.645Z,62.90
2018-04-27T04:44:29.045Z,60.80
2018-04-27T04:46:56.567Z,60.60
2018-04-27T04:49:24.992Z,59.00
2018-04-27T04:51:52.649Z,59.00
2018-04-27T04:54:20.149Z,58.90
2018-04-27T04:56:47.877Z,60.60
2018-04-27T04:59:15.533Z,63.60
2018-04-27T05:01:43.549Z,64.90
2018-04-27T05:04:11.087Z,65.10
2018-04-27T05:06:38.624Z,62.70
2018-04-27T05:09:06.147Z,58.70
2018-04-27T05:11:34.478Z,53.20
2018-04-27T05:14:01.964Z,53.10
2018-04-27T05:16:29.562Z,51.60
2018-04-27T05:18:58.473Z,48.80
2018-04-27T05:21:26.582Z,46.80
2018-04-27T05:23:54.217Z,45.00
2018-04-27T05:26:21.734Z,46.40
2018-04-27T05:28:49.287Z,47.50
2018-04-27T05:31:24.040Z,48.00
2018-04-27T05:33:51.658Z,48.10
2018-04-27T05:36:19.149Z,46.70
2018-04-27T05:38:46.651Z,46.20
2018-04-27T05:41:14.169Z,44.00
2018-04-27T05:43:41.687Z,41.80
2018-04-27T05:46:10.019Z,40.40
2018-04-27T05:48:37.595Z,39.50
2018-04-27T05:51:05.142Z,39.70
2018-04-27T05:53:32.739Z,38.50
2018-04-27T05:56:00.256Z,38.20
2018-04-27T05:58:27.789Z,37.80
2018-04-27T06:00:56.379Z,37.20
2018-04-27T06:03:23.983Z,37.20
2018-04-27T06:05:51.511Z,38.20
2018-04-27T06:08:19.127Z,38.40
2018-04-27T06:10:46.618Z,38.00
2018-04-27T06:13:15.234Z,35.70
2018-04-27T06:15:43.502Z,35.50
2018-04-27T06:18:11.024Z,35.50
2018-04-27T06:20:38.813Z,34.30
2018-04-27T06:23:07.108Z,33.70
2018-04-27T06:25:34.646Z,33.80
2018-04-27T06:28:02.637Z,33.30
2018-04-27T06:30:30.349Z,33.70
2018-04-27T06:32:58.047Z,31.80
2018-04-27T06:35:26.313Z,33.00
2018-04-27T06:37:53.888Z,32.90
2018-04-27T06:40:21.581Z,33.40
2018-04-27T06:42:49.088Z,34.20
2018-04-27T06:45:17.419Z,34.10
2018-04-27T06:47:44.969Z,34.20
2018-04-27T06:50:12.473Z,34.00
2018-04-27T06:52:40.700Z,32.90
2018-04-27T06:55:08.329Z,32.90
2018-04-27T06:57:35.896Z,32.60
2018-04-27T07:00:04.175Z,32.60
2018-04-27T07:02:32.582Z,30.90
2018-04-27T07:05:00.358Z,30.80
2018-04-27T07:07:27.908Z,30.30
2018-04-27T07:09:55.434Z,29.30
2018-04-27T07:12:23.866Z,30.70
2018-04-27T07:14:51.582Z,30.70
2018-04-27T07:17:19.960Z,30.80
2018-04-27T07:19:47.467Z,30.80
2018-04-27T07:22:14.982Z,31.90
2018-04-27T07:24:43.282Z,33.30
2018-04-27T07:27:10.783Z,33.20
2018-04-27T07:29:38.300Z,31.40
2018-04-27T07:32:05.803Z,31.90
2018-04-27T07:34:33.328Z,32.10
2018-04-27T07:37:00.877Z,32.70
2018-04-27T07:39:28.746Z,34.20
2018-04-27T07:41:56.767Z,33.00
2018-04-27T07:44:24.458Z,32.60
2018-04-27T07:46:52.146Z,31.60
2018-04-27T07:49:19.701Z,31.20
2018-04-27T07:51:47.271Z,31.90
2018-04-27T07:54:14.781Z,31.20
2018-04-27T07:56:42.760Z,31.90
2018-04-27T07:59:11.252Z,34.60
2018-04-27T08:01:38.768Z,34.50
2018-04-27T08:04:06.329Z,35.20
2018-04-27T08:06:34.241Z,34.20
2018-04-27T08:09:01.829Z,33.50
2018-04-27T08:11:29.353Z,34.60
2018-04-27T08:13:56.995Z,34.90
2018-04-27T08:16:24.511Z,36.40
2018-04-27T08:18:52.052Z,37.20
2018-04-27T08:21:20.679Z,36.40
2018-04-27T08:23:48.368Z,36.50
2018-04-27T08:26:18.582Z,36.30
2018-04-27T08:28:46.130Z,36.50
2018-04-27T08:31:13.642Z,36.10
2018-04-27T08:33:41.427Z,37.90
2018-04-27T08:36:08.987Z,37.30
2018-04-27T08:38:36.580Z,37.30
2018-04-27T08:41:04.520Z,38.00
2018-04-27T08:43:32.057Z,38.10
2018-04-27T08:45:59.865Z,40.80
2018-04-27T08:48:27.430Z,39.10
2018-04-27T08:50:56.455Z,39.50
2018-04-27T08:53:23.989Z,39.60
2018-04-27T08:55:52.006Z,40.40
2018-04-27T08:58:19.527Z,40.10
2018-04-27T09:00:47.826Z,41.40
2018-04-27T09:03:16.169Z,40.90
2018-04-27T09:05:43.877Z,40.80
2018-04-27T09:08:12.362Z,41.40
2018-04-27T09:10:39.922Z,41.40
2018-04-27T09:13:07.650Z,40.70
2018-04-27T09:15:35.270Z,39.00
2018-04-27T09:18:03.192Z,39.50
2018-04-27T09:20:30.916Z,40.30
2018-04-27T09:22:58.432Z,41.20
2018-04-27T09:25:26.731Z,41.40
2018-04-27T09:27:54.399Z,40.80
2018-04-27T09:30:22.098Z,40.40
2018-04-27T09:32:50.410Z,40.40
2018-04-27T09:35:18.006Z,40.40
2018-04-27T09:37:45.543Z,41.10
2018-04-27T09:40:13.060Z,39.60
2018-04-27T09:42:40.735Z,37.90
2018-04-27T09:45:08.440Z,38.20
2018-04-27T09:47:35.953Z,41.50
2018-04-27T09:50:03.673Z,40.50
2018-04-27T09:52:31.290Z,39.60
2018-04-27T09:54:58.845Z,39.20
2018-04-27T09:57:27.907Z,38.50
2018-04-27T09:59:55.644Z,38.50
2018-04-27T10:02:23.149Z,37.30
2018-04-27T10:04:50.658Z,37.20
2018-04-27T10:07:18.489Z,39.60
2018-04-27T10:09:46.124Z,38.20
2018-04-27T10:12:13.751Z,38.30
2018-04-27T10:14:41.251Z,36.50
2018-04-27T10:17:08.953Z,38.10
2018-04-27T10:19:40.745Z,37.40
2018-04-27T10:22:08.257Z,37.30
2018-04-27T10:24:35.798Z,39.10
2018-04-27T10:27:03.416Z,39.20
2018-04-27T10:29:31.230Z,39.10
2018-04-27T10:31:59.338Z,39.40
2018-04-27T10:34:27.204Z,38.10
2018-04-27T10:36:54.701Z,39.10
2018-04-27T10:39:22.578Z,38.70
2018-04-27T10:41:50.134Z,39.50
2018-04-27T10:44:17.675Z,40.40
2018-04-27T10:46:45.819Z,39.20
2018-04-27T10:49:13.340Z,36.70
2018-04-27T10:51:42.360Z,38.80
2018-04-27T10:54:10.692Z,39.60
2018-04-27T10:56:38.251Z,39.50
2018-04-27T10:59:05.848Z,36.40
2018-04-27T11:01:33.400Z,37.10
2018-04-27T11:04:00.893Z,38.60
2018-04-27T11:06:28.427Z,36.90
2018-04-27T11:08:56.004Z,38.00
2018-04-27T11:11:24.031Z,38.20
2018-04-27T11:13:52.008Z,37.30
2018-04-27T11:16:19.597Z,35.40
2018-04-27T11:18:47.171Z,35.70
2018-04-27T11:21:14.844Z,36.50
2018-04-27T11:23:42.354Z,36.30
2018-04-27T11:26:10.130Z,34.90
2018-04-27T11:28:37.702Z,35.40
2018-04-27T11:31:05.235Z,36.80
2018-04-27T11:33:32.743Z,36.10
2018-04-27T11:36:00.262Z,38.00
2018-04-27T11:38:27.757Z,35.60
2018-04-27T11:40:55.457Z,35.80
2018-04-27T11:43:22.945Z,37.00
2018-04-27T11:45:50.669Z,34.80
2018-04-27T11:48:18.213Z,34.40
2018-04-27T11:50:46.485Z,33.90
2018-04-27T11:53:13.991Z,34.80
2018-04-27T11:55:41.705Z,34.80
2018-04-27T11:58:09.252Z,35.50
2018-04-27T12:00:36.823Z,34.10
2018-04-27T12:03:05.124Z,33.00
2018-04-27T12:05:32.791Z,33.00
2018-04-27T12:08:00.388Z,33.00
2018-04-27T12:10:27.891Z,35.70
2018-04-27T12:12:55.782Z,33.80
2018-04-27T12:15:23.311Z,33.90
2018-04-27T12:17:50.834Z,33.20
2018-04-27T12:20:19.169Z,33.70
2018-04-27T12:22:46.661Z,33.60
2018-04-27T12:25:14.916Z,34.10
2018-04-27T12:27:42.459Z,31.40
2018-04-27T12:30:10.167Z,34.30
2018-04-27T12:32:37.900Z,31.30
2018-04-27T12:35:05.426Z,31.50
2018-04-27T12:37:33.750Z,31.90
2018-04-27T12:40:01.323Z,31.90
2018-04-27T12:42:28.875Z,32.70
2018-04-27T12:44:56.482Z,32.30
2018-04-27T12:47:23.960Z,30.10
2018-04-27T12:49:51.643Z,31.00
2018-04-27T12:52:19.167Z,31.00
2018-04-27T12:54:46.762Z,30.00
2018-04-27T12:57:14.533Z,29.40
2018-04-27T12:59:42.086Z,30.00
2018-04-27T13:02:09.846Z,30.40
2018-04-27T13:04:37.383Z,29.70
2018-04-27T13:07:04.896Z,29.70
2018-04-27T13:09:32.428Z,29.90
2018-04-27T13:12:00.025Z,29.00
2018-04-27T13:14:27.545Z,29.80
2018-04-27T13:16:55.260Z,29.90
2018-04-27T13:19:22.781Z,30.90
2018-04-27T13:21:50.326Z,31.40
2018-04-27T13:24:17.903Z,30.40
2018-04-27T13:26:45.581Z,30.60
2018-04-27T13:29:14.809Z,31.70
2018-04-27T13:31:42.372Z,31.50
2018-04-27T13:34:09.910Z,32.90
2018-04-27T13:36:37.466Z,32.00
2018-04-27T13:39:05.662Z,31.50
2018-04-27T13:41:36.073Z,31.70
2018-04-27T13:44:04.158Z,31.70
2018-04-27T13:46:31.674Z,31.10
2018-04-27T13:48:59.197Z,31.70
2018-04-27T13:51:27.081Z,32.10
2018-04-27T13:53:54.884Z,31.80
2018-04-27T13:56:23.039Z,32.20
2018-04-27T13:58:50.589Z,32.00
2018-04-27T14:01:18.356Z,31.40
2018-04-27T14:03:46.552Z,31.60
2018-04-27T14:06:14.084Z,32.10
2018-04-27T14:08:42.380Z,31.80
2018-04-27T14:11:10.202Z,32.30
2018-04-27T14:13:37.989Z,32.00
2018-04-27T14:16:05.558Z,32.50
2018-04-27T14:18:33.051Z,32.80
2018-04-27T14:21:00.567Z,32.10
2018-04-27T14:23:28.355Z,32.70
2018-04-27T14:25:55.903Z,31.60
2018-04-27T14:28:24.018Z,32.10
2018-04-27T14:30:51.641Z,31.90
2018-04-27T14:33:19.173Z,32.60
2018-04-27T14:35:47.594Z,32.60
2018-04-27T14:38:15.930Z,32.40
2018-04-27T14:40:43.489Z,32.50
2018-04-27T14:43:11.219Z,32.40
2018-04-27T14:45:38.741Z,32.30
2018-04-27T14:48:06.342Z,32.80
2018-04-27T14:50:33.860Z,33.60
2018-04-27T14:53:01.376Z,34.00
2018-04-27T14:55:29.656Z,35.30
2018-04-27T14:57:58.202Z,35.70
2018-04-27T15:00:26.681Z,35.60
2018-04-27T15:02:54.240Z,34.80
2018-04-27T15:05:21.771Z,35.30
2018-04-27T15:07:49.316Z,34.20
2018-04-27T15:10:17.320Z,33.50
2018-04-27T15:12:44.833Z,33.30
2018-04-27T15:15:12.403Z,34.90
2018-04-27T15:17:40.111Z,34.30
2018-04-27T15:20:07.947Z,35.30
2018-04-27T15:22:35.821Z,35.00
2018-04-27T15:25:03.371Z,35.00
2018-04-27T15:27:32.071Z,35.70
2018-04-27T15:29:59.680Z,35.10
2018-04-27T15:32:27.253Z,35.90
2018-04-27T15:34:54.855Z,35.80
2018-04-27T15:37:23.249Z,35.60
2018-04-27T15:39:50.905Z,35.50
2018-04-27T15:42:18.488Z,35.70
2018-04-27T15:44:46.052Z,36.10
2018-04-27T15:47:13.630Z,36.20
2018-04-27T15:49:42.105Z,36.50
2018-04-27T15:52:09.743Z,36.00
2018-04-27T15:54:37.332Z,36.60
2018-04-27T15:57:04.883Z,37.20
2018-04-27T15:59:33.893Z,36.30
2018-04-27T16:02:02.356Z,35.60
2018-04-27T16:04:30.012Z,36.20
2018-04-27T16:06:57.531Z,35.60
2018-04-27T16:09:25.374Z,35.00
2018-04-27T16:11:52.894Z,35.50
2018-04-27T16:14:20.409Z,36.00
2018-04-27T16:16:48.284Z,35.00
2018-04-27T16:19:16.259Z,35.70
2018-04-27T16:21:43.992Z,35.80
2018-04-27T16:24:12.599Z,36.40
2018-04-27T16:26:40.960Z,36.30
2018-04-27T16:29:08.506Z,35.90
2018-04-27T16:31:36.861Z,35.70
2018-04-27T16:34:04.929Z,35.70
2018-04-27T16:36:32.493Z,36.50
2018-04-27T16:39:00.755Z,35.90
2018-04-27T16:41:28.486Z,37.80
2018-04-27T16:43:56.028Z,35.10
2018-04-27T16:46:23.593Z,35.70
2018-04-27T16:48:51.910Z,36.20
2018-04-27T16:51:19.488Z,36.20
2018-04-27T16:53:47.036Z,36.40
2018-04-27T16:56:14.606Z,37.00
2018-04-27T16:58:42.217Z,37.30
2018-04-27T17:01:09.732Z,37.30
2018-04-27T17:03:37.502Z,37.90
2018-04-27T17:06:06.177Z,37.70
2018-04-27T17:08:37.303Z,38.20
2018-04-27T17:11:04.876Z,38.10
2018-04-27T17:13:32.461Z,37.80
2018-04-27T17:16:00.071Z,38.30
2018-04-27T17:18:27.910Z,37.90
2018-04-27T17:20:55.501Z,37.90
2018-04-27T17:23:23.054Z,38.30
2018-04-27T17:25:50.675Z,38.00
2018-04-27T17:28:18.225Z,38.00
2018-04-27T17:30:46.022Z,38.40
2018-04-27T17:33:14.332Z,38.50
2018-04-27T17:35:42.250Z,38.50
2018-04-27T17:38:10.777Z,38.90
2018-04-27T17:40:38.328Z,38.90
2018-04-27T17:43:05.942Z,39.20
2018-04-27T17:45:33.664Z,39.30
2018-04-27T17:48:01.296Z,39.30
2018-04-27T17:50:29.015Z,39.40
2018-04-27T17:52:57.547Z,40.20
2018-04-27T17:55:26.024Z,40.20
2018-04-27T17:57:53.676Z,40.40
2018-04-27T18:00:22.094Z,41.30
2018-04-27T18:02:49.775Z,40.80
2018-04-27T18:05:17.800Z,41.10
2018-04-27T18:07:46.082Z,41.30
2018-04-27T18:10:13.782Z,41.30
2018-04-27T18:12:41.830Z,41.50
2018-04-27T18:15:09.396Z,41.50
2018-04-27T18:17:37.013Z,41.80
2018-04-27T18:20:04.486Z,41.90
2018-04-27T18:22:32.031Z,42.00
2018-04-27T18:24:59.560Z,42.10
2018-04-27T18:27:27.237Z,42.20
2018-04-27T18:29:54.763Z,42.30
2018-04-27T18:32:22.549Z,42.40
2018-04-27T18:34:50.522Z,42.60
2018-04-27T18:37:18.095Z,42.80
2018-04-27T18:39:45.777Z,42.70
2018-04-27T18:42:14.383Z,43.70
2018-04-27T18:44:41.944Z,43.10
2018-04-27T18:47:09.635Z,43.10
2018-04-27T18:49:37.188Z,43.50
2018-04-27T18:52:04.726Z,43.80
2018-04-27T18:54:32.263Z,43.80
2018-04-27T18:56:59.947Z,44.10
2018-04-27T18:59:27.500Z,44.40
2018-04-27T19:01:55.125Z,44.60
2018-04-27T19:04:22.675Z,44.90
2018-04-27T19:06:50.491Z,45.10
2018-04-27T19:09:18.259Z,45.40
2018-04-27T19:11:45.978Z,45.70
2018-04-27T19:14:13.596Z,45.90
2018-04-27T19:16:41.113Z,46.20
2018-04-27T19:19:08.643Z,46.30
2018-04-27T19:21:36.363Z,46.40
2018-04-27T19:24:04.675Z,46.50
2018-04-27T19:26:33.012Z,46.60
2018-04-27T19:29:01.388Z,46.90
2018-04-27T19:31:28.968Z,46.90
2018-04-27T19:33:56.542Z,47.00
2018-04-27T19:36:24.119Z,47.10
2018-04-27T19:38:52.674Z,47.50
2018-04-27T19:41:20.549Z,47.60
2018-04-27T19:43:48.091Z,47.90
2018-04-27T19:46:16.242Z,48.00
2018-04-27T19:48:45.260Z,48.30
2018-04-27T19:51:12.841Z,48.60
2018-04-27T19:53:40.548Z,48.70
2018-04-27T19:56:08.921Z,49.60
2018-04-27T19:58:36.476Z,49.00
2018-04-27T20:01:04.009Z,49.20
2018-04-27T20:03:31.683Z,49.40
2018-04-27T20:05:59.313Z,49.70
2018-04-27T20:08:27.441Z,49.80
2018-04-27T20:10:55.142Z,50.20
2018-04-27T20:13:22.601Z,50.10
2018-04-27T20:15:52.001Z,50.30
2018-04-27T20:18:20.626Z,50.60
2018-04-27T20:20:49.109Z,50.80
2018-04-27T20:23:17.879Z,51.00
2018-04-27T20:25:45.429Z,51.10
2018-04-27T20:28:12.950Z,51.30
2018-04-27T20:30:40.489Z,51.40
2018-04-27T20:33:10.833Z,51.60
2018-04-27T20:35:38.368Z,51.60
2018-04-27T20:38:16.085Z,51.80
2018-04-27T20:40:44.372Z,51.80
2018-04-27T20:43:12.241Z,52.10
2018-04-27T20:45:40.880Z,53.10
2018-04-27T20:48:17.123Z,52.80
2018-04-27T20:50:56.155Z,52.90
2018-04-27T20:53:23.705Z,53.20
2018-04-27T20:55:52.052Z,53.80
2018-04-27T20:58:19.645Z,53.80
2018-04-27T21:00:47.220Z,54.20
2018-04-27T21:03:14.775Z,54.50
2018-04-27T21:05:42.285Z,54.80
2018-04-27T21:08:09.884Z,54.90
2018-04-27T21:10:37.404Z,55.30
2018-04-27T21:13:04.966Z,55.60
2018-04-27T21:15:34.400Z,56.20
2018-04-27T21:18:05.576Z,56.40
2018-04-27T21:20:33.144Z,56.40
2018-04-27T21:23:00.702Z,56.70
2018-04-27T21:25:29.507Z,57.00
2018-04-27T21:27:57.592Z,57.10
2018-04-27T21:30:25.162Z,57.30
2018-04-27T21:35:52.515Z,57.60
2018-04-27T21:38:39.420Z,58.00
2018-04-27T21:44:04.972Z,58.40
2018-04-27T21:46:32.630Z,58.80
2018-04-27T21:49:06.750Z,58.90
2018-04-27T21:51:34.317Z,59.10
2018-04-27T21:54:11.581Z,59.30
2018-04-27T21:56:40.105Z,59.30
2018-04-27T21:59:08.425Z,59.70
2018-04-27T22:01:35.978Z,59.80
2018-04-27T22:04:04.431Z,59.90
2018-04-27T22:06:32.802Z,60.10
2018-04-27T22:09:06.990Z,60.60
2018-04-27T22:11:46.126Z,60.50
2018-04-27T22:14:15.090Z,60.50
2018-04-27T22:16:59.113Z,60.90
2018-04-27T22:19:26.625Z,61.10
2018-04-27T22:21:54.137Z,61.30
2018-04-27T22:24:26.218Z,61.60
2018-04-27T22:26:57.207Z,61.70
2018-04-27T22:29:30.663Z,62.00
2018-04-27T22:32:00.011Z,62.40
2018-04-27T22:34:30.951Z,62.50
2018-04-27T22:36:59.251Z,62.60
2018-04-27T22:39:47.513Z,62.70
2018-04-27T22:42:16.693Z,62.90
2018-04-27T22:44:54.298Z,63.20
2018-04-27T22:47:28.341Z,63.60
2018-04-27T22:49:55.847Z,63.80
2018-04-27T22:52:23.363Z,64.10
2018-04-27T22:54:51.771Z,64.70
2018-04-27T23:00:15.363Z,65.10
2018-04-27T23:02:43.639Z,65.50
2018-04-27T23:05:24.875Z,65.60
2018-04-27T23:07:52.408Z,65.40
2018-04-27T23:10:20.641Z,65.40
2018-04-27T23:12:57.796Z,65.40
2018-04-27T23:15:25.354Z,65.90
2018-04-27T23:17:52.876Z,66.30
2018-04-27T23:20:23.894Z,66.60
2018-04-27T23:23:03.076Z,66.80
2018-04-27T23:25:38.021Z,67.20
2018-04-27T23:28:05.625Z,67.40
2018-04-27T23:30:37.418Z,68.00
2018-04-27T23:33:05.719Z,68.00
2018-04-27T23:35:33.244Z,68.30
2018-04-27T23:38:02.850Z,68.40
2018-04-27T23:40:30.448Z,68.70
2018-04-27T23:42:57.951Z,69.00
2018-04-27T23:45:26.421Z,69.30
2018-04-27T23:47:57.633Z,69.30
2018-04-27T23:50:25.161Z,69.30
2018-04-27T23:52:52.669Z,69.40
2018-04-27T23:55:21.219Z,69.70
2018-04-27T23:57:48.825Z,70.10
